Time;durP1;ratioP1;P1;durP2;ratioP2;P2;SDS_P1;SDS_P2;PMS_P1;PMS_P2;Temp;Humidity;BMP_temperature;BMP_pressure;BME280_temperature;BME280_humidity;BME280_pressure;Samples;Min_cycle;Max_cycle;Signal;HPM_P1;HPM_P2
2022/08/27 00:00:28;;;;;;;;;;;27.20;80.10;;;;;;5065763;28;20310;-61
2022/08/27 00:02:54;;;;;;;;;;;27.10;79.80;;;;;;5055345;28;19931;-61
2022/08/27 00:05:20;;;;;;;;;;;26.80;79.50;;;;;;5054234;28;20011;-61
2022/08/27 00:07:46;;;;;;;;;;;26.80;79.60;;;;;;5071250;28;19981;-60
2022/08/27 00:10:13;;;;;;;;;;;26.90;79.50;;;;;;5066927;28;19925;-62
2022/08/27 00:12:38;;;;;;;;;;;27.20;80.10;;;;;;5049079;28;20015;-61
2022/08/27 00:15:04;;;;;;;;;;;27.00;79.50;;;;;;5071105;28;20045;-60
2022/08/27 00:17:30;;;;;;;;;;;26.80;79.60;;;;;;5069064;28;20383;-62
2022/08/27 00:19:56;;;;;;;;;;;26.90;79.30;;;;;;5048962;28;20470;-61
2022/08/27 00:22:21;;;;;;;;;;;27.00;79.70;;;;;;5052433;28;20017;-60
2022/08/27 00:24:47;;;;;;;;;;;27.60;79.80;;;;;;5036403;28;19925;-60
2022/08/27 00:27:12;;;;;;;;;;;26.90;79.60;;;;;;5047422;28;19952;-61
2022/08/27 00:29:38;;;;;;;;;;;27.10;79.70;;;;;;5015706;28;19975;-61
2022/08/27 00:32:04;;;;;;;;;;;26.80;79.20;;;;;;5053640;28;19972;-60
2022/08/27 00:34:30;;;;;;;;;;;27.10;79.60;;;;;;5053448;28;20015;-60
2022/08/27 00:36:56;;;;;;;;;;;26.60;79.40;;;;;;5053972;28;19932;-60
2022/08/27 00:39:21;;;;;;;;;;;27.00;79.80;;;;;;5053847;28;19925;-60
2022/08/27 00:41:48;;;;;;;;;;;26.90;79.40;;;;;;5077934;28;19932;-64
2022/08/27 00:44:14;;;;;;;;;;;26.80;78.30;;;;;;5053910;28;20035;-63
2022/08/27 00:46:39;;;;;;;;;;;27.30;79.80;;;;;;5053633;28;19965;-62
2022/08/27 00:49:06;;;;;;;;;;;26.90;79.60;;;;;;5051355;28;20278;-61
2022/08/27 00:51:32;;;;;;;;;;;26.90;79.80;;;;;;5069007;28;19924;-60
2022/08/27 00:53:58;;;;;;;;;;;27.00;79.60;;;;;;5052149;28;19924;-60
2022/08/27 00:56:25;;;;;;;;;;;27.00;79.60;;;;;;5053222;28;20025;-61
2022/08/27 00:58:51;;;;;;;;;;;27.00;80.00;;;;;;5066779;28;19924;-60
2022/08/27 01:01:18;;;;;;;;;;;26.70;79.70;;;;;;5052485;28;19986;-67
2022/08/27 01:03:46;;;;;;;;;;;26.70;79.60;;;;;;5051876;28;19932;-67
2022/08/27 01:06:12;;;;;;;;;;;26.90;79.80;;;;;;5052947;28;19925;-61
2022/08/27 01:08:38;;;;;;;;;;;26.80;79.70;;;;;;5054033;28;19924;-61
2022/08/27 01:11:04;;;;;;;;;;;26.90;79.60;;;;;;5065011;28;19925;-67
2022/08/27 01:13:30;;;;;;;;;;;27.00;79.50;;;;;;5051957;28;19959;-68
2022/08/27 01:15:57;;;;;;;;;;;27.20;79.90;;;;;;5053207;28;19925;-68
2022/08/27 01:18:26;;;;;;;;;;;27.00;79.70;;;;;;5053333;28;19924;-67
2022/08/27 01:20:58;;;;;;;;;;;27.00;79.80;;;;;;5055726;28;20371;-68
2022/08/27 01:23:32;;;;;;;;;;;26.70;78.10;;;;;;5052404;28;20370;-68
2022/08/27 01:25:58;;;;;;;;;;;26.70;79.70;;;;;;5066358;28;19932;-67
2022/08/27 01:28:24;;;;;;;;;;;26.80;79.70;;;;;;5062840;28;19925;-60
2022/08/27 01:30:49;;;;;;;;;;;26.80;79.60;;;;;;5078867;28;20316;-61
2022/08/27 01:33:16;;;;;;;;;;;26.80;79.80;;;;;;5052944;28;19935;-61
2022/08/27 01:35:42;;;;;;;;;;;26.90;79.80;;;;;;5051846;28;19924;-67
2022/08/27 01:38:08;;;;;;;;;;;26.60;79.70;;;;;;5052418;28;19932;-67
2022/08/27 01:40:35;;;;;;;;;;;26.70;79.50;;;;;;5051580;28;19921;-74
2022/08/27 01:43:00;;;;;;;;;;;27.00;79.80;;;;;;5052684;28;19972;-73
2022/08/27 01:45:27;;;;;;;;;;;26.50;79.20;;;;;;5049937;28;19969;-78
2022/08/27 01:47:52;;;;;;;;;;;26.70;79.00;;;;;;5044703;28;20337;-81
2022/08/27 01:50:21;;;;;;;;;;;26.60;78.10;;;;;;5049710;28;20003;-73
2022/08/27 01:52:48;;;;;;;;;;;26.80;78.10;;;;;;5049441;28;19928;-72
2022/08/27 01:55:15;;;;;;;;;;;26.40;77.60;;;;;;5049876;28;19931;-72
2022/08/27 01:57:41;;;;;;;;;;;26.30;78.00;;;;;;5048230;28;20309;-66
2022/08/27 02:00:09;;;;;;;;;;;26.40;78.30;;;;;;5047098;28;19933;-74
2022/08/27 02:02:34;;;;;;;;;;;26.00;77.90;;;;;;5046391;28;19944;-76
2022/08/27 02:05:00;;;;;;;;;;;25.90;78.70;;;;;;5048073;28;19929;-61
2022/08/27 02:07:26;;;;;;;;;;;26.00;78.20;;;;;;5048114;28;19925;-62
2022/08/27 02:09:51;;;;;;;;;;;26.20;78.20;;;;;;5047837;28;19925;-66
2022/08/27 02:12:17;;;;;;;;;;;26.20;78.20;;;;;;5048726;28;19936;-62
2022/08/27 02:14:43;;;;;;;;;;;26.00;77.90;;;;;;5052690;28;20370;-61
2022/08/27 02:17:08;;;;;;;;;;;26.00;78.20;;;;;;5052819;28;20019;-60
2022/08/27 02:19:34;;;;;;;;;;;25.70;78.30;;;;;;5054192;28;20320;-61
2022/08/27 02:22:00;;;;;;;;;;;26.00;78.10;;;;;;5053064;28;20405;-61
2022/08/27 02:24:27;;;;;;;;;;;26.00;78.20;;;;;;5053018;28;19931;-61
2022/08/27 02:26:54;;;;;;;;;;;26.00;78.40;;;;;;5052284;28;19990;-61
2022/08/27 02:29:20;;;;;;;;;;;26.40;78.00;;;;;;5053741;28;19925;-61
2022/08/27 02:31:45;;;;;;;;;;;26.30;78.50;;;;;;5053247;28;20377;-61
2022/08/27 02:34:11;;;;;;;;;;;26.10;78.10;;;;;;5054235;28;19987;-62
2022/08/27 02:36:37;;;;;;;;;;;26.00;78.00;;;;;;5056343;28;19968;-61
2022/08/27 02:39:03;;;;;;;;;;;26.30;78.30;;;;;;5056198;28;19925;-61
2022/08/27 02:41:30;;;;;;;;;;;26.40;78.40;;;;;;5056415;28;19921;-65
2022/08/27 02:43:55;;;;;;;;;;;26.30;78.20;;;;;;5056246;28;19931;-61
2022/08/27 02:46:21;;;;;;;;;;;26.30;78.00;;;;;;5056489;28;19925;-61
2022/08/27 02:48:47;;;;;;;;;;;26.30;78.10;;;;;;5055714;28;20013;-61
2022/08/27 02:51:12;;;;;;;;;;;26.20;77.90;;;;;;5056167;28;19980;-61
2022/08/27 02:53:38;;;;;;;;;;;26.40;78.10;;;;;;5056160;28;19924;-61
2022/08/27 02:56:04;;;;;;;;;;;26.20;77.90;;;;;;5056391;28;19932;-61
2022/08/27 02:58:32;;;;;;;;;;;26.30;78.00;;;;;;5055726;28;19928;-67
2022/08/27 03:00:59;;;;;;;;;;;26.30;78.10;;;;;;5056159;28;19928;-62
2022/08/27 03:03:24;;;;;;;;;;;26.40;78.40;;;;;;5056315;28;19925;-61
2022/08/27 03:05:51;;;;;;;;;;;26.50;78.10;;;;;;5055705;28;19929;-61
2022/08/27 03:08:17;;;;;;;;;;;26.60;78.50;;;;;;5037984;28;20402;-62
2022/08/27 03:10:42;;;;;;;;;;;26.30;77.90;;;;;;5055673;28;19924;-61
2022/08/27 03:13:08;;;;;;;;;;;26.20;78.00;;;;;;5038283;28;19925;-62
2022/08/27 03:15:34;;;;;;;;;;;26.60;78.20;;;;;;5055620;28;19940;-61
2022/08/27 03:18:18;;;;;;;;;;;26.50;78.20;;;;;;5055525;28;19928;-61
2022/08/27 03:20:53;;;;;;;;;;;26.40;77.20;;;;;;5055268;28;20450;-61
2022/08/27 03:23:21;;;;;;;;;;;26.30;78.40;;;;;;5055264;28;19925;-60
2022/08/27 03:25:50;;;;;;;;;;;26.30;78.30;;;;;;5071306;28;20290;-61
2022/08/27 03:28:16;;;;;;;;;;;26.30;78.40;;;;;;5070967;28;19932;-61
2022/08/27 03:30:44;;;;;;;;;;;26.10;78.30;;;;;;5055515;28;20267;-62
2022/08/27 03:33:10;;;;;;;;;;;26.70;78.60;;;;;;5055431;28;19928;-61
2022/08/27 03:35:36;;;;;;;;;;;26.30;78.60;;;;;;5055533;28;19931;-62
2022/08/27 03:38:01;;;;;;;;;;;26.50;78.60;;;;;;5055610;28;20336;-61
2022/08/27 03:40:27;;;;;;;;;;;26.30;78.30;;;;;;5055333;28;19975;-61
2022/08/27 03:42:53;;;;;;;;;;;26.60;78.80;;;;;;5054751;28;19925;-61
2022/08/27 03:45:18;;;;;;;;;;;26.60;78.70;;;;;;5055084;28;19925;-61
2022/08/27 03:47:44;;;;;;;;;;;26.40;78.60;;;;;;5055376;28;19986;-61
2022/08/27 03:50:10;;;;;;;;;;;26.20;78.40;;;;;;5055392;28;20374;-61
2022/08/27 03:52:36;;;;;;;;;;;26.30;78.70;;;;;;5054536;28;20004;-61
2022/08/27 03:55:03;;;;;;;;;;;26.60;78.90;;;;;;5054869;28;19971;-60
2022/08/27 03:57:29;;;;;;;;;;;26.20;78.80;;;;;;5055879;28;19925;-62
2022/08/27 03:59:55;;;;;;;;;;;26.40;78.60;;;;;;5054943;28;19932;-63
2022/08/27 04:02:21;;;;;;;;;;;26.50;79.00;;;;;;5054951;28;19931;-61
2022/08/27 04:04:47;;;;;;;;;;;26.60;78.80;;;;;;5037101;28;20011;-61
2022/08/27 04:07:12;;;;;;;;;;;26.20;78.50;;;;;;5054729;28;20408;-62
2022/08/27 04:09:38;;;;;;;;;;;26.30;78.20;;;;;;5054864;28;19932;-61
2022/08/27 04:12:04;;;;;;;;;;;26.50;78.70;;;;;;5055306;28;19932;-62
2022/08/27 04:14:30;;;;;;;;;;;26.40;78.40;;;;;;5054426;28;19929;-61
2022/08/27 04:16:55;;;;;;;;;;;26.40;78.70;;;;;;5054837;28;19947;-60
2022/08/27 04:19:21;;;;;;;;;;;26.60;78.60;;;;;;5054524;28;19924;-61
2022/08/27 04:21:47;;;;;;;;;;;26.40;78.70;;;;;;5055191;28;19925;-61
2022/08/27 04:24:12;;;;;;;;;;;26.40;78.60;;;;;;5054002;28;19925;-64
2022/08/27 04:26:39;;;;;;;;;;;26.60;78.90;;;;;;5053044;28;19928;-61
2022/08/27 04:29:04;;;;;;;;;;;26.50;78.90;;;;;;5054609;28;20074;-61
2022/08/27 04:31:30;;;;;;;;;;;26.50;78.90;;;;;;5054595;28;20286;-61
2022/08/27 04:33:56;;;;;;;;;;;26.40;78.40;;;;;;5054648;28;19925;-61
2022/08/27 04:36:22;;;;;;;;;;;26.40;78.80;;;;;;5054058;28;20007;-71
2022/08/27 04:38:48;;;;;;;;;;;26.10;78.40;;;;;;5046643;28;19925;-72
2022/08/27 04:41:25;;;;;;;;;;;26.10;78.40;;;;;;5034248;28;19948;-61
2022/08/27 04:43:51;;;;;;;;;;;26.40;77.80;;;;;;5042822;28;20294;-61
2022/08/27 04:46:30;;;;;;;;;;;26.40;79.00;;;;;;5053811;28;19970;-61
2022/08/27 04:48:57;;;;;;;;;;;26.20;77.50;;;;;;5054286;28;19925;-61
2022/08/27 04:51:22;;;;;;;;;;;26.30;78.90;;;;;;5053990;28;19925;-61
2022/08/27 04:53:48;;;;;;;;;;;26.40;78.80;;;;;;5053910;28;19925;-62
2022/08/27 04:56:15;;;;;;;;;;;26.20;78.70;;;;;;5053360;28;19928;-61
2022/08/27 04:58:40;;;;;;;;;;;26.40;79.10;;;;;;5054038;28;19925;-61
2022/08/27 05:01:06;;;;;;;;;;;26.30;78.70;;;;;;5053718;28;20402;-62
2022/08/27 05:03:32;;;;;;;;;;;26.10;78.60;;;;;;5053742;28;20458;-61
2022/08/27 05:05:58;;;;;;;;;;;26.50;78.70;;;;;;5053625;28;19925;-61
2022/08/27 05:08:24;;;;;;;;;;;26.30;79.60;;;;;;5054023;28;19931;-61
2022/08/27 05:10:50;;;;;;;;;;;26.20;78.60;;;;;;5054012;28;20003;-61
2022/08/27 05:13:17;;;;;;;;;;;26.30;79.00;;;;;;5053207;28;19929;-61
2022/08/27 05:15:43;;;;;;;;;;;26.40;79.00;;;;;;5052722;28;19925;-61
2022/08/27 05:18:09;;;;;;;;;;;26.20;78.90;;;;;;5054093;28;20386;-61
2022/08/27 05:20:40;;;;;;;;;;;26.30;78.70;;;;;;5053943;28;19925;-61
2022/08/27 05:23:05;;;;;;;;;;;25.90;78.80;;;;;;5052997;28;19948;-61
2022/08/27 05:25:31;;;;;;;;;;;26.20;78.80;;;;;;5053839;28;19940;-61
2022/08/27 05:27:57;;;;;;;;;;;26.30;78.90;;;;;;5069258;28;19929;-71
2022/08/27 05:30:22;;;;;;;;;;;26.40;78.80;;;;;;5053849;28;19924;-70
2022/08/27 05:32:48;;;;;;;;;;;26.30;78.80;;;;;;5053823;28;19932;-61
2022/08/27 05:35:13;;;;;;;;;;;26.30;78.60;;;;;;5053226;28;19927;-61
2022/08/27 05:37:39;;;;;;;;;;;26.20;78.50;;;;;;5053712;28;20078;-61
2022/08/27 05:40:05;;;;;;;;;;;26.60;78.50;;;;;;5053645;28;19924;-61
2022/08/27 05:42:31;;;;;;;;;;;26.80;78.30;;;;;;5053433;28;20432;-61
2022/08/27 05:44:57;;;;;;;;;;;26.70;78.50;;;;;;5076780;28;19940;-61
2022/08/27 05:47:23;;;;;;;;;;;26.90;78.10;;;;;;5053553;28;19924;-61
2022/08/27 05:49:52;;;;;;;;;;;26.70;78.00;;;;;;5053612;28;19987;-61
2022/08/27 05:52:18;;;;;;;;;;;27.00;76.80;;;;;;5035395;28;20382;-61
2022/08/27 05:54:43;;;;;;;;;;;27.00;77.70;;;;;;5053242;28;19978;-71
2022/08/27 05:57:09;;;;;;;;;;;27.20;77.80;;;;;;5053575;28;20402;-71
2022/08/27 06:02:19;;;;;;;;;;;27.60;76.90;;;;;;5053293;28;20424;-60
2022/08/27 06:04:45;;;;;;;;;;;27.50;77.00;;;;;;5053517;28;19928;-61
2022/08/27 06:07:11;;;;;;;;;;;27.50;77.10;;;;;;5052951;28;19925;-61
2022/08/27 06:09:37;;;;;;;;;;;27.80;76.60;;;;;;5056962;28;19939;-61
2022/08/27 06:12:02;;;;;;;;;;;27.70;76.70;;;;;;5057263;28;19978;-61
2022/08/27 06:14:28;;;;;;;;;;;27.90;76.40;;;;;;5057281;28;20015;-61
2022/08/27 06:16:54;;;;;;;;;;;28.10;76.50;;;;;;5056376;28;19970;-61
2022/08/27 06:19:20;;;;;;;;;;;28.20;76.30;;;;;;5056936;28;19929;-60
2022/08/27 06:21:46;;;;;;;;;;;28.20;76.00;;;;;;5056847;28;19926;-61
2022/08/27 06:24:11;;;;;;;;;;;28.00;75.70;;;;;;5057071;28;20007;-61
2022/08/27 06:26:37;;;;;;;;;;;28.60;75.70;;;;;;5056566;28;19936;-61
2022/08/27 06:29:03;;;;;;;;;;;28.70;75.80;;;;;;5056874;28;19931;-61
2022/08/27 06:31:29;;;;;;;;;;;28.40;75.60;;;;;;5056170;28;20051;-61
2022/08/27 06:33:57;;;;;;;;;;;28.40;75.40;;;;;;5056905;28;19956;-70
2022/08/27 06:36:23;;;;;;;;;;;28.50;75.50;;;;;;5056492;28;20445;-71
2022/08/27 06:38:49;;;;;;;;;;;28.30;75.30;;;;;;5048735;28;20019;-61
2022/08/27 06:41:15;;;;;;;;;;;28.40;75.20;;;;;;5059803;28;19971;-61
2022/08/27 06:43:41;;;;;;;;;;;28.60;75.60;;;;;;5056499;28;19929;-61
2022/08/27 06:46:07;;;;;;;;;;;28.20;75.00;;;;;;5056621;28;20440;-60
2022/08/27 06:48:33;;;;;;;;;;;28.20;75.20;;;;;;5056521;28;19968;-61
2022/08/27 06:50:58;;;;;;;;;;;28.40;74.90;;;;;;5056338;28;20429;-63
2022/08/27 06:53:24;;;;;;;;;;;28.10;75.00;;;;;;5055137;28;19921;-62
2022/08/27 06:55:50;;;;;;;;;;;28.50;75.40;;;;;;5056132;28;19955;-61
2022/08/27 06:58:16;;;;;;;;;;;28.70;75.40;;;;;;5056125;28;19924;-61
2022/08/27 07:00:42;;;;;;;;;;;28.30;75.10;;;;;;5055894;28;19921;-62
2022/08/27 07:03:08;;;;;;;;;;;28.20;75.20;;;;;;5055736;28;19932;-61
2022/08/27 07:05:35;;;;;;;;;;;28.40;75.30;;;;;;5055785;28;19925;-61
2022/08/27 07:08:01;;;;;;;;;;;28.70;75.70;;;;;;5054387;28;20441;-61
2022/08/27 07:10:26;;;;;;;;;;;28.20;74.60;;;;;;5056215;28;19931;-61
2022/08/27 07:12:52;;;;;;;;;;;28.40;75.30;;;;;;5056058;28;19921;-60
2022/08/27 07:15:18;;;;;;;;;;;28.40;75.10;;;;;;5055099;28;19932;-61
2022/08/27 07:17:43;;;;;;;;;;;28.50;75.30;;;;;;5058590;28;19924;-61
2022/08/27 07:20:09;;;;;;;;;;;28.50;75.10;;;;;;5055363;28;19932;-61
2022/08/27 07:22:35;;;;;;;;;;;28.30;75.30;;;;;;5055685;28;20394;-61
2022/08/27 07:25:01;;;;;;;;;;;28.30;75.00;;;;;;5055547;28;19951;-61
2022/08/27 07:27:27;;;;;;;;;;;28.50;75.50;;;;;;5055015;28;19947;-61
2022/08/27 07:29:52;;;;;;;;;;;28.30;75.20;;;;;;5055807;28;19925;-61
2022/08/27 07:32:18;;;;;;;;;;;28.20;75.30;;;;;;5055827;28;20425;-61
2022/08/27 07:34:44;;;;;;;;;;;28.10;75.30;;;;;;5055691;28;19925;-61
2022/08/27 07:37:10;;;;;;;;;;;28.50;75.30;;;;;;5054828;28;19929;-61
2022/08/27 07:39:35;;;;;;;;;;;28.40;75.20;;;;;;5037726;28;19975;-61
2022/08/27 07:44:45;;;;;;;;;;;28.30;74.70;;;;;;5055562;28;19925;-61
2022/08/27 07:47:12;;;;;;;;;;;28.30;75.60;;;;;;5054882;28;20302;-61
2022/08/27 07:49:37;;;;;;;;;;;28.20;75.80;;;;;;5055050;28;19935;-61
2022/08/27 07:52:03;;;;;;;;;;;28.40;75.60;;;;;;5055012;28;19925;-61
2022/08/27 07:54:29;;;;;;;;;;;28.30;75.50;;;;;;5055415;28;20023;-61
2022/08/27 07:56:54;;;;;;;;;;;28.40;75.30;;;;;;5055306;28;19924;-62
2022/08/27 07:59:20;;;;;;;;;;;28.60;75.40;;;;;;5054334;28;20387;-65
2022/08/27 08:01:47;;;;;;;;;;;28.60;75.10;;;;;;5055255;28;19924;-61
2022/08/27 08:04:13;;;;;;;;;;;28.60;75.10;;;;;;5054727;28;19924;-61
2022/08/27 08:06:39;;;;;;;;;;;28.80;75.20;;;;;;5055087;28;19932;-61
2022/08/27 08:09:05;;;;;;;;;;;29.00;75.20;;;;;;5054365;28;20409;-65
2022/08/27 08:11:31;;;;;;;;;;;28.80;74.90;;;;;;5070515;28;19925;-62
2022/08/27 08:13:56;;;;;;;;;;;28.70;74.70;;;;;;5054658;28;19924;-63
2022/08/27 08:16:22;;;;;;;;;;;28.90;74.50;;;;;;5069563;28;20409;-64
2022/08/27 08:18:48;;;;;;;;;;;29.10;74.80;;;;;;5054797;28;20290;-61
2022/08/27 08:21:13;;;;;;;;;;;29.00;74.40;;;;;;5054501;28;19924;-61
2022/08/27 08:23:39;;;;;;;;;;;29.10;74.60;;;;;;5054508;28;19932;-61
2022/08/27 08:26:05;;;;;;;;;;;28.90;74.30;;;;;;5053605;28;19991;-61
2022/08/27 08:28:31;;;;;;;;;;;29.00;74.50;;;;;;5053489;28;19925;-61
2022/08/27 08:30:57;;;;;;;;;;;29.10;74.10;;;;;;5054452;28;20459;-62
2022/08/27 08:33:22;;;;;;;;;;;29.10;74.20;;;;;;5054311;28;19980;-61
2022/08/27 08:35:48;;;;;;;;;;;29.10;74.00;;;;;;5054613;28;19924;-61
2022/08/27 08:38:14;;;;;;;;;;;29.20;74.00;;;;;;5053427;28;19925;-61
2022/08/27 08:40:41;;;;;;;;;;;29.20;74.20;;;;;;5054200;28;19932;-61
2022/08/27 08:43:09;;;;;;;;;;;29.00;74.10;;;;;;5054023;28;19932;-61
2022/08/27 08:45:35;;;;;;;;;;;29.30;74.30;;;;;;5069074;28;20030;-61
2022/08/27 08:48:05;;;;;;;;;;;29.30;74.10;;;;;;5072392;28;19991;-61
2022/08/27 08:50:38;;;;;;;;;;;29.20;72.80;;;;;;5069838;28;19925;-63
2022/08/27 08:53:18;;;;;;;;;;;29.40;72.80;;;;;;5069571;28;19924;-62
2022/08/27 08:55:46;;;;;;;;;;;29.20;72.70;;;;;;5054252;28;19931;-61
2022/08/27 08:58:26;;;;;;;;;;;29.00;73.90;;;;;;5053133;28;20055;-63
2022/08/27 09:00:53;;;;;;;;;;;29.40;72.90;;;;;;5069282;28;19924;-61
2022/08/27 09:03:19;;;;;;;;;;;29.20;74.30;;;;;;5069322;28;19935;-62
2022/08/27 09:05:49;;;;;;;;;;;29.10;74.00;;;;;;5053626;28;19925;-61
2022/08/27 09:08:30;;;;;;;;;;;28.90;74.30;;;;;;5069261;28;19925;-62
2022/08/27 09:11:02;;;;;;;;;;;29.00;72.90;;;;;;5053619;28;20370;-61
2022/08/27 09:13:30;;;;;;;;;;;29.10;73.10;;;;;;5053724;28;19925;-61
2022/08/27 09:15:56;;;;;;;;;;;28.80;74.30;;;;;;5053707;28;20336;-62
2022/08/27 09:18:23;;;;;;;;;;;29.20;74.60;;;;;;5053659;28;19925;-61
2022/08/27 09:20:49;;;;;;;;;;;28.90;74.10;;;;;;5052610;28;19971;-62
2022/08/27 09:23:21;;;;;;;;;;;28.80;74.50;;;;;;5049370;28;19970;-61
2022/08/27 09:25:47;;;;;;;;;;;28.80;73.00;;;;;;5052526;28;20279;-61
2022/08/27 09:31:01;;;;;;;;;;;28.90;74.60;;;;;;5053332;28;19924;-61
2022/08/27 09:33:27;;;;;;;;;;;28.70;74.40;;;;;;5053358;28;20433;-71
2022/08/27 09:35:52;;;;;;;;;;;28.70;73.90;;;;;;5053764;28;19925;-61
2022/08/27 09:38:28;;;;;;;;;;;28.80;74.30;;;;;;5053381;28;20023;-63
2022/08/27 09:40:54;;;;;;;;;;;28.70;74.40;;;;;;5053462;28;19925;-62
2022/08/27 09:43:22;;;;;;;;;;;29.00;74.50;;;;;;5034458;28;19933;-61
2022/08/27 09:45:51;;;;;;;;;;;28.80;74.10;;;;;;5037444;28;19951;-62
2022/08/27 09:48:18;;;;;;;;;;;28.80;73.00;;;;;;5037762;28;19925;-72
2022/08/27 09:50:48;;;;;;;;;;;29.00;74.40;;;;;;5068803;28;19925;-62
2022/08/27 09:53:18;;;;;;;;;;;28.70;72.90;;;;;;5071981;28;19925;-63
2022/08/27 09:55:46;;;;;;;;;;;28.90;73.10;;;;;;5057616;28;19925;-61
2022/08/27 09:58:19;;;;;;;;;;;29.00;74.70;;;;;;5073096;28;19924;-69
2022/08/27 10:00:44;;;;;;;;;;;28.70;73.10;;;;;;5072665;28;20375;-62
2022/08/27 10:03:10;;;;;;;;;;;28.60;74.30;;;;;;5057027;28;19924;-61
2022/08/27 10:05:37;;;;;;;;;;;28.80;74.40;;;;;;5056320;28;20007;-62
2022/08/27 10:08:17;;;;;;;;;;;28.70;74.30;;;;;;5056582;28;19978;-61
2022/08/27 10:10:42;;;;;;;;;;;28.60;73.10;;;;;;5056187;28;19925;-61
2022/08/27 10:13:10;;;;;;;;;;;28.60;74.30;;;;;;5056781;28;20287;-61
2022/08/27 10:15:36;;;;;;;;;;;28.80;74.60;;;;;;5056849;28;20023;-62
2022/08/27 10:18:06;;;;;;;;;;;28.90;74.60;;;;;;5072434;28;19925;-68
2022/08/27 10:20:35;;;;;;;;;;;28.40;74.20;;;;;;5072351;28;19925;-71
2022/08/27 10:23:01;;;;;;;;;;;28.90;74.50;;;;;;5056714;28;19937;-61
2022/08/27 10:25:26;;;;;;;;;;;28.90;74.20;;;;;;5056589;28;19951;-61
2022/08/27 10:28:01;;;;;;;;;;;28.80;74.30;;;;;;5056615;28;19986;-61
2022/08/27 10:30:34;;;;;;;;;;;29.00;73.10;;;;;;5056664;28;19924;-61
2022/08/27 10:33:10;;;;;;;;;;;28.60;72.90;;;;;;5056930;28;20023;-61
2022/08/27 10:35:39;;;;;;;;;;;28.60;72.90;;;;;;5056085;28;19925;-63
2022/08/27 10:38:06;;;;;;;;;;;28.90;74.50;;;;;;5086014;28;19925;-62
2022/08/27 10:40:58;;;;;;;;;;;28.70;74.20;;;;;;5056628;28;20012;-62
2022/08/27 10:43:42;;;;;;;;;;;28.70;73.00;;;;;;5037476;28;19924;-61
2022/08/27 10:46:26;;;;;;;;;;;28.80;73.10;;;;;;5055212;28;19964;-62
2022/08/27 10:48:56;;;;;;;;;;;28.70;73.00;;;;;;5056259;28;19925;-61
2022/08/27 10:51:30;;;;;;;;;;;28.60;72.80;;;;;;5056585;28;19940;-61
2022/08/27 10:54:01;;;;;;;;;;;28.80;72.90;;;;;;5056043;28;19986;-61
2022/08/27 10:56:34;;;;;;;;;;;28.80;73.00;;;;;;5066869;28;19979;-65
2022/08/27 10:59:03;;;;;;;;;;;28.70;72.80;;;;;;5056605;28;19925;-65
2022/08/27 11:01:43;;;;;;;;;;;28.90;74.30;;;;;;5071965;28;20593;-65
2022/08/27 11:04:11;;;;;;;;;;;28.60;73.30;;;;;;5071415;28;19925;-61
2022/08/27 11:06:40;;;;;;;;;;;28.50;73.80;;;;;;5070875;28;19998;-63
2022/08/27 11:09:10;;;;;;;;;;;28.70;72.70;;;;;;5055891;28;19925;-62
2022/08/27 11:11:37;;;;;;;;;;;28.70;74.10;;;;;;5071709;28;20333;-61
2022/08/27 11:14:05;;;;;;;;;;;28.50;74.00;;;;;;5056046;28;19924;-62
2022/08/27 11:16:42;;;;;;;;;;;28.90;74.20;;;;;;5071426;28;19924;-61
2022/08/27 11:19:19;;;;;;;;;;;28.90;72.90;;;;;;5070888;28;19965;-61
2022/08/27 11:21:46;;;;;;;;;;;28.80;72.90;;;;;;5055750;28;20382;-64
2022/08/27 11:24:30;;;;;;;;;;;28.80;74.30;;;;;;5055954;28;19968;-61
2022/08/27 11:26:57;;;;;;;;;;;28.50;72.50;;;;;;5055925;28;19925;-61
2022/08/27 11:29:26;;;;;;;;;;;29.00;74.30;;;;;;5054890;28;19925;-61
2022/08/27 11:32:02;;;;;;;;;;;28.70;73.90;;;;;;5055672;28;20339;-61
2022/08/27 11:34:41;;;;;;;;;;;28.90;72.70;;;;;;5071609;28;20336;-62
2022/08/27 11:37:13;;;;;;;;;;;28.90;72.70;;;;;;5071203;28;19970;-61
2022/08/27 11:39:39;;;;;;;;;;;28.80;72.60;;;;;;5054784;28;20337;-61
2022/08/27 11:42:20;;;;;;;;;;;28.60;73.50;;;;;;5054519;28;19929;-61
2022/08/27 11:44:46;;;;;;;;;;;28.80;72.70;;;;;;5055595;28;19925;-62
2022/08/27 11:47:13;;;;;;;;;;;28.90;74.10;;;;;;5055384;28;19960;-62
2022/08/27 11:49:44;;;;;;;;;;;28.70;73.80;;;;;;5053916;28;19991;-61
2022/08/27 11:52:09;;;;;;;;;;;29.10;72.80;;;;;;5057826;28;19928;-62
2022/08/27 11:54:43;;;;;;;;;;;28.70;73.30;;;;;;5055099;28;19925;-61
2022/08/27 11:57:41;;;;;;;;;;;28.90;72.40;;;;;;5055087;28;20428;-68
2022/08/27 12:00:32;;;;;;;;;;;28.80;72.30;;;;;;5053038;28;19924;-62
2022/08/27 12:02:58;;;;;;;;;;;28.90;72.40;;;;;;5040347;28;20362;-63
2022/08/27 12:05:31;;;;;;;;;;;28.80;73.30;;;;;;5047552;28;19964;-61
2022/08/27 12:07:58;;;;;;;;;;;28.90;73.40;;;;;;5049651;28;20342;-63
2022/08/27 12:10:24;;;;;;;;;;;28.90;73.20;;;;;;5032978;28;19925;-62
2022/08/27 12:12:51;;;;;;;;;;;29.20;73.40;;;;;;5031598;28;20227;-61
2022/08/27 12:15:40;;;;;;;;;;;28.80;72.90;;;;;;5032623;28;20036;-61
2022/08/27 12:18:25;;;;;;;;;;;29.00;72.20;;;;;;4993484;28;19926;-61
2022/08/27 12:20:50;;;;;;;;;;;29.00;72.10;;;;;;4993248;28;20020;-62
2022/08/27 12:26:21;;;;;;;;;;;29.30;72.30;;;;;;4993175;28;20299;-61
2022/08/27 12:28:47;;;;;;;;;;;29.10;72.10;;;;;;4993028;28;19968;-61
2022/08/27 12:31:17;;;;;;;;;;;29.20;73.10;;;;;;4993087;28;20025;-61
2022/08/27 12:33:46;;;;;;;;;;;28.60;71.80;;;;;;4993067;28;19942;-61
2022/08/27 12:36:14;;;;;;;;;;;29.20;73.80;;;;;;4992434;28;19933;-61
2022/08/27 12:38:42;;;;;;;;;;;28.80;72.10;;;;;;4993486;28;20378;-61
2022/08/27 12:41:08;;;;;;;;;;;29.10;73.70;;;;;;4992767;28;19926;-61
2022/08/27 12:43:37;;;;;;;;;;;28.80;72.90;;;;;;4992911;28;19932;-62
2022/08/27 12:46:06;;;;;;;;;;;29.00;73.70;;;;;;4992130;28;20406;-61
2022/08/27 12:48:33;;;;;;;;;;;29.10;72.10;;;;;;4992820;28;19926;-61
2022/08/27 12:50:59;;;;;;;;;;;29.00;73.30;;;;;;4992750;28;19926;-61
2022/08/27 12:53:25;;;;;;;;;;;29.00;73.10;;;;;;4992751;28;20322;-61
2022/08/27 12:55:51;;;;;;;;;;;28.80;72.70;;;;;;5042681;28;20020;-62
2022/08/27 12:58:29;;;;;;;;;;;28.90;72.60;;;;;;5054196;28;19925;-65
2022/08/27 13:01:00;;;;;;;;;;;29.00;71.90;;;;;;5054258;28;20313;-62
2022/08/27 13:03:42;;;;;;;;;;;29.10;72.60;;;;;;5053853;28;19924;-61
2022/08/27 13:06:26;;;;;;;;;;;29.00;71.70;;;;;;5032201;28;19925;-63
2022/08/27 13:08:56;;;;;;;;;;;28.90;71.80;;;;;;5033100;28;19968;-71
2022/08/27 13:11:22;;;;;;;;;;;29.00;71.80;;;;;;5033556;28;19929;-61
2022/08/27 13:13:48;;;;;;;;;;;29.00;73.00;;;;;;5033993;28;19932;-61
2022/08/27 13:16:16;;;;;;;;;;;29.00;72.70;;;;;;5034041;28;19925;-61
2022/08/27 13:18:41;;;;;;;;;;;29.20;72.80;;;;;;5044813;28;20395;-61
2022/08/27 13:21:17;;;;;;;;;;;29.20;72.50;;;;;;5029486;28;19973;-64
2022/08/27 13:23:48;;;;;;;;;;;29.00;71.30;;;;;;5014321;28;19967;-60
2022/08/27 13:26:14;;;;;;;;;;;29.10;72.90;;;;;;5045873;28;19952;-62
2022/08/27 13:28:40;;;;;;;;;;;29.00;72.60;;;;;;5037664;28;19968;-62
2022/08/27 13:31:05;;;;;;;;;;;28.90;72.70;;;;;;5065293;28;19932;-61
2022/08/27 13:33:32;;;;;;;;;;;28.90;72.90;;;;;;5049060;28;19925;-61
2022/08/27 13:35:59;;;;;;;;;;;29.00;73.10;;;;;;5034106;28;19925;-62
2022/08/27 13:38:26;;;;;;;;;;;28.90;73.00;;;;;;5033500;28;19925;-63
2022/08/27 13:40:57;;;;;;;;;;;28.90;73.10;;;;;;5045709;28;19921;-61
2022/08/27 13:43:31;;;;;;;;;;;28.80;71.60;;;;;;5014127;28;19926;-61
2022/08/27 13:45:56;;;;;;;;;;;28.80;71.60;;;;;;5013645;28;19933;-61
2022/08/27 13:48:22;;;;;;;;;;;29.00;72.60;;;;;;5026657;28;19925;-62
2022/08/27 13:50:48;;;;;;;;;;;28.90;72.10;;;;;;5047607;28;20354;-61
2022/08/27 13:55:59;;;;;;;;;;;29.10;73.10;;;;;;5060960;28;19932;-61
2022/08/27 13:58:26;;;;;;;;;;;29.00;72.70;;;;;;5033393;28;20287;-69
2022/08/27 14:00:52;;;;;;;;;;;28.80;73.10;;;;;;5032834;28;19925;-62
2022/08/27 14:03:24;;;;;;;;;;;28.90;72.70;;;;;;5034245;28;19928;-61
2022/08/27 14:05:50;;;;;;;;;;;28.90;71.70;;;;;;5049758;28;19924;-63
2022/08/27 14:08:16;;;;;;;;;;;28.80;72.80;;;;;;5068593;28;19950;-61
2022/08/27 14:10:46;;;;;;;;;;;28.40;72.50;;;;;;5053068;28;19924;-62
2022/08/27 14:13:18;;;;;;;;;;;28.50;71.70;;;;;;5053122;28;19924;-70
2022/08/27 14:15:48;;;;;;;;;;;29.00;73.50;;;;;;5053330;28;20003;-71
2022/08/27 14:18:21;;;;;;;;;;;28.50;73.20;;;;;;5053441;28;19925;-61
2022/08/27 14:20:46;;;;;;;;;;;28.70;72.00;;;;;;5053389;28;19947;-61
2022/08/27 14:23:12;;;;;;;;;;;28.70;73.10;;;;;;5053203;28;20015;-62
2022/08/27 14:25:38;;;;;;;;;;;28.50;73.00;;;;;;5052165;28;19994;-61
2022/08/27 14:28:04;;;;;;;;;;;28.60;73.50;;;;;;5069607;28;20024;-62
2022/08/27 14:30:30;;;;;;;;;;;28.50;72.80;;;;;;5056706;28;20015;-61
2022/08/27 14:32:59;;;;;;;;;;;28.70;73.20;;;;;;5056912;28;20281;-61